• Join FlightAware (Why Join?)
  • Login
  • US Flag GB Flag 
02:16 EDT


 

Airport Tracker/Info


-or-


 

Live Flight TrackerFlight Track Log ✈ NWA188 ✈ 21-Oct-2009 ✈ KSAN - KMSP

Flight Track Log - Related Links

Times and Time Zones

All times are in EDT time to prevent confusion due to time zone crossing. See the NWA188 flight status page for this flight to view local times or setup timezone preferences in your user account.

Time Position Orientation Groundspeed Altitude Reporting Facility
EDT Latitude Longitude Course Direction KTS MPH feet Rate Location/Type
18:00 32.7406 -117.2270 288° West 35,000  Level Los Angeles Center
18:01 32.7547 -117.2790 225° Southwest 204 235 2,500 -15,300 Descending Los Angeles Center
18:02 32.7147 -117.3260 140° Southeast 205 236 4,400 2,160 Climbing Los Angeles Center
18:03 32.6547 -117.2660 102° East 177 204 6,900 2,400 Climbing Los Angeles Center
18:04 32.6389 -117.1770 104° East 205 236 9,300 2,220 Climbing Los Angeles Center
18:05 32.6186 -117.0830 108° East 241 277 11,400 2,100 Climbing Los Angeles Center
18:06 32.5922 -116.9860 96° East 280 322 13,500 1,680 Climbing Los Angeles Center
18:07 32.5825 -116.8850 63° Northeast 300 345 14,800 1,020 Climbing Los Angeles Center
18:08 32.6250 -116.7870 81° East 308 354 15,600 660 Climbing Los Angeles Center
18:09 32.6422 -116.6560 84° East 347 399 16,200 600 Climbing Los Angeles Center
18:10 32.6553 -116.5110 84° East 402 463 16,800 1,140 Climbing Los Angeles Center
18:11 32.6703 -116.3430 83° East 453 521 18,500 1,560 Climbing Los Angeles Center
18:12 32.6872 -116.1880 84° East 471 542 20,000 1,320 Climbing Los Angeles Center
18:13 32.7019 -116.0300 85° East 471 542 21,200 1,140 Climbing Los Angeles Center
18:14 32.7142 -115.8690 83° East 476 548 22,300 900 Climbing Los Angeles Center
18:15 32.7303 -115.7090 84° East 481 554 23,100 840 Climbing Los Angeles Center
18:16 32.7444 -115.5480 87° East 486 559 24,000 1,080 Climbing Los Angeles Center
18:17 32.7517 -115.3800 89° East 492 566 25,300 1,200 Climbing Los Angeles Center
18:18 32.7547 -115.2120 89° East 497 572 26,400 1,080 Climbing Los Angeles Center
18:19 32.7578 -115.0490 89° East 497 572 27,500 1,200 Climbing Los Angeles Center
18:20 32.7603 -114.8860 88° East 497 572 28,800 1,140 Climbing Los Angeles Center
18:21 32.7647 -114.7230 89° East 497 572 29,800 1,020 Climbing Los Angeles Center
18:22 32.7669 -114.5630 90° East 492 566 30,900 960 Climbing Los Angeles Center
18:23 32.7672 -114.3670 89° East 495 570 32,000 840 Climbing Albuquerque Center
18:24 32.7700 -114.2090 89° East 488 562 32,800 480 Climbing Albuquerque Center
18:25 32.7728 -114.0510 84° East 483 556 33,000 360 Climbing Albuquerque Center
18:26 32.7856 -113.8940 80° East 477 549 33,600 600 Climbing Albuquerque Center
18:27 32.8083 -113.7400 78° East 477 549 34,200 600 Climbing Albuquerque Center
18:28 32.8353 -113.5870 66° East 477 549 34,800 360 Climbing Albuquerque Center
18:29 32.8883 -113.4470 66° East 471 542 35,000 60 Climbing Albuquerque Center
18:30 32.9392 -113.3080 65° Northeast 461 531 35,000  Level Albuquerque Center
18:31 32.9942 -113.1650 66° East 461 531 35,000  Level Albuquerque Center
18:32 33.0397 -113.0420 66° East 461 531 35,000  Level Albuquerque Center
18:33 33.0900 -112.9040 66° East 456 525 35,000  Level Albuquerque Center
18:34 33.1422 -112.7640 66° East 456 525 35,000  Level Albuquerque Center
18:35 33.1944 -112.6260 67° East 451 519 35,000  Level Albuquerque Center
18:36 33.2419 -112.4900 66° East 451 519 35,000  Level Albuquerque Center
18:37 33.2936 -112.3540 66° East 451 519 35,000  Level Albuquerque Center
18:38 33.3453 -112.2150 67° East 451 519 35,000  Level Albuquerque Center
18:39 33.3944 -112.0790 67° East 451 519 35,000  Level Albuquerque Center
18:40 33.4436 -111.9420 66° East 445 512 35,000  Level Albuquerque Center
18:41 33.4947 -111.8060 67° East 445 512 35,000  Level Albuquerque Center
18:42 33.5433 -111.6690 67° East 450 518 35,000  Level Albuquerque Center
18:43 33.5922 -111.5310 66° East 450 518 35,000  Level Albuquerque Center
18:44 33.6428 -111.3940 67° East 450 518 35,000  Level Albuquerque Center
18:45 33.6911 -111.2570 67° East 450 518 35,000  Level Albuquerque Center
18:46 33.7439 -111.1040 66° East 450 518 35,000  Level Albuquerque Center
18:47 33.7894 -110.9820 67° East 445 512 35,000  Level Albuquerque Center
18:48 33.8442 -110.8290 67° East 445 512 35,000  Level Albuquerque Center
18:49 33.8917 -110.6910 67° East 451 519 35,000  Level Albuquerque Center
18:50 33.9392 -110.5550 67° East 443 510 35,000  Level Albuquerque Center
18:51 33.9889 -110.4140 69° East 443 510 35,000  Level Albuquerque Center
18:52 34.0319 -110.2760 67° East 445 512 35,000  Level Albuquerque Center
18:53 34.0811 -110.1370 68° East 445 512 35,000  Level Albuquerque Center
18:54 34.1283 -109.9950 69° East 456 525 35,000  Level Albuquerque Center
18:55 34.1731 -109.8540 67° East 450 518 35,000  Level Albuquerque Center
18:56 34.2172 -109.7290 68° East 444 511 35,000  Level Albuquerque Center
18:57 34.2681 -109.5780 68° East 444 511 35,000  Level Albuquerque Center
18:58 34.3122 -109.4430 66° East 444 511 35,000  Level Albuquerque Center
18:59 34.3625 -109.3060 67° East 437 503 35,000  Level Albuquerque Center
19:00 34.4086 -109.1710 70° East 430 495 35,000  Level Albuquerque Center
19:01 34.4500 -109.0360 68° East 430 495 35,000  Level Albuquerque Center
19:02 34.4958 -108.8980 68° East 435 501 35,000  Level Albuquerque Center
19:03 34.5414 -108.7610 69° East 435 501 35,000  Level Albuquerque Center
19:04 34.5844 -108.6250 68° East 435 501 35,000  Level Albuquerque Center
19:05 34.6297 -108.4890 69° East 435 501 35,000  Level Albuquerque Center
19:06 34.6728 -108.3490 69° East 435 501 35,000  Level Albuquerque Center
19:07 34.7175 -108.2100 70° East 435 501 35,000  Level Albuquerque Center
19:08 34.7603 -108.0660 67° East 435 501 35,000  Level Albuquerque Center
19:09 34.8089 -107.9280 68° East 440 506 35,000  Level Albuquerque Center
19:10 34.8556 -107.7840 69° East 445 512 35,000  Level Albuquerque Center
19:11 34.8975 -107.6520 69° East 459 528 35,000  Level Albuquerque Center
19:12 34.9458 -107.4960 68° East 453 521 35,000  Level Albuquerque Center
19:13 34.9919 -107.3540 70° East 448 516 35,000  Level Albuquerque Center
19:14 35.0314 -107.2240 68° East 448 516 35,000  Level Albuquerque Center
19:15 35.0772 -107.0820 70° East 448 516 35,000  Level Albuquerque Center
19:16 35.1247 -106.9240 69° East 448 516 35,000  Level Albuquerque Center
19:17 35.1700 -106.7790 70° East 448 516 35,000 60 Level Albuquerque Center
19:18 35.2089 -106.6490 70° East 448 516 35,200 360 Climbing Albuquerque Center
19:19 35.2558 -106.4940 69° East 443 510 35,800 300 Climbing Albuquerque Center
19:20 35.3006 -106.3510 70° East 451 519 35,900 300 Climbing Albuquerque Center
19:21 35.3453 -106.2000 69° East 457 526 36,500 540 Climbing Albuquerque Center
19:22 35.3897 -106.0590 71° East 449 517 37,000 240 Climbing Albuquerque Center
19:23 35.4258 -105.9310 71° East 449 517 37,000  Level Albuquerque Center
19:24 35.4697 -105.7770 70° East 456 525 37,000  Level Albuquerque Center
19:25 35.5136 -105.6260 69° East 456 525 37,000  Level Albuquerque Center
19:26 35.5594 -105.4790 70° East 462 532 37,000  Level Albuquerque Center
19:27 35.6086 -105.3100 64° Northeast 472 543 37,000  Level Albuquerque Center
19:28 35.6625 -105.1730 48° Northeast 472 543 37,000  Level Albuquerque Center
19:29 35.7603 -105.0390 37° Northeast 472 543 37,100  Climbing Albuquerque Center
19:30 35.8689 -104.9390 37° Northeast 472 543 37,000 -60 Descending Albuquerque Center
19:31 35.9753 -104.8410 37° Northeast 481 554 37,000  Level Albuquerque Center
19:32 36.0817 -104.7400 37° Northeast 475 547 37,000  Level Albuquerque Center
19:33 36.1881 -104.6410 38° Northeast 475 547 37,000  Level Albuquerque Center
19:34 36.2942 -104.5370 38° Northeast 475 547 37,000  Level Albuquerque Center
19:35 36.4000 -104.4350 37° Northeast 480 552 37,000  Level Albuquerque Center
19:36 36.4939 -104.3460 37° Northeast 472 543 37,000  Level Albuquerque Center
19:37 36.6158 -104.2300 38° Northeast 475 547 37,000  Level Denver Center
19:38 36.7219 -104.1260 37° Northeast 488 562 37,000  Level Denver Center
19:39 36.8203 -104.0340 38° Northeast 488 562 37,000  Level Denver Center
19:40 36.9364 -103.9210 38° Northeast 483 556 37,000  Level Denver Center
19:41 37.0425 -103.8160 39° Northeast 483 556 37,000  Level Denver Center
19:42 37.1361 -103.7220 38° Northeast 483 556 37,000  Level Denver Center
19:43 37.2542 -103.6080 37° Northeast 483 556 37,000  Level Denver Center
19:44 37.3619 -103.5070 37° Northeast 483 556 37,000  Level Denver Center
19:45 37.4597 -103.4140 39° Northeast 483 556 37,000  Level Denver Center
19:46 37.5631 -103.3100 37° Northeast 478 550 37,000  Level Denver Center
19:47 37.6808 -103.1980 37° Northeast 473 544 37,000  Level Denver Center
19:48 37.7864 -103.0980 38° Northeast 473 544 37,000  Level Denver Center
19:49 37.8814 -103.0040 38° Northeast 473 544 37,000  Level Denver Center
19:51 38.0172 -102.8710 39° Northeast 473 544 37,000  Level Denver Center
19:52 38.1181 -102.7660 36° Northeast 473 544 37,000  Level Denver Center
19:53 38.2272 -102.6650 32° Northeast 473 544 37,000  Level Denver Center
19:54 38.3308 -102.5830 33° Northeast 479 551 37,000  Level Denver Center
19:55 38.4422 -102.4890 32° Northeast 479 551 37,000  Level Denver Center
19:56 38.5661 -102.3890 34° Northeast 479 551 37,000  Level Denver Center
19:57 38.6772 -102.2920 32° Northeast 484 557 37,000  Level Denver Center
19:58 38.7925 -102.2000 33° Northeast 484 557 37,000  Level Denver Center
19:59 38.8936 -102.1140 33° Northeast 490 564 37,000  Level Denver Center
20:00 39.0189 -102.0100 34° Northeast 484 557 37,000  Level Denver Center
20:01 39.1300 -101.9140 33° Northeast 484 557 37,000  Level Denver Center
20:02 39.2428 -101.8180 35° Northeast 484 557 37,000  Level Denver Center
20:03 39.3456 -101.7260 30° Northeast 494 568 37,000  Level Denver Center
20:04 39.4750 -101.6310 28° Northeast 488 562 37,100  Climbing Denver Center
20:05 39.5925 -101.5490 28° Northeast 476 548 37,000 -60 Descending Denver Center
20:06 39.6997 -101.4740 30° Northeast 483 556 37,000  Level Denver Center
20:07 39.8169 -101.3870 29° Northeast 483 556 37,000  Level Denver Center
20:08 39.9464 -101.2940 29° Northeast 483 556 37,000  Level Denver Center
20:09 40.0633 -101.2090 29° Northeast 483 556 37,000  Level Denver Center
20:10 40.1706 -101.1320 29° Northeast 483 556 37,000  Level Denver Center
20:11 40.2853 -101.0470 29° Northeast 483 556 37,000  Level Denver Center
20:12 40.4144 -100.9520 35° Northeast 483 556 37,000  Level Denver Center
20:13 40.5222 -100.8530 39° Northeast 478 550 37,000  Level Denver Center
20:14 40.6133 -100.7550 40° Northeast 473 544 37,000  Level Denver Center
20:15 40.7261 -100.6300 39° Northeast 473 544 37,000  Level Denver Center
20:16 40.8311 -100.5190 39° Northeast 481 554 37,000  Level Denver Center
20:17 40.9239 -100.4200 38° Northeast 481 554 37,000  Level Denver Center
20:18 41.0406 -100.2970 40° Northeast 481 554 37,000  Level Denver Center
20:19 41.1447 -100.1820 40° Northeast 481 554 37,000  Level Denver Center
20:20 41.2492 -100.0670 40° Northeast 481 554 37,000  Level Denver Center
20:21 41.3414 -99.9639 39° Northeast 481 554 37,000  Level Denver Center
20:22 41.4556 -99.8417 40° Northeast 487 560 37,000  Level Denver Center
20:23 41.5614 -99.7225 39° Northeast 487 560 37,000  Level Denver Center
20:24 41.6675 -99.6069 41° Northeast 471 542 37,000  Level Minneapolis Center
20:25 41.7742 -99.4842 41° Northeast 478 550 37,000  Level Minneapolis Center
20:26 41.8789 -99.3633 39° Northeast 484 557 37,000  Level Minneapolis Center
20:27 41.9894 -99.2431 40° Northeast 497 572 37,000  Level Minneapolis Center
20:28 42.0958 -99.1217 41° Northeast 497 572 37,000  Level Minneapolis Center
20:29 42.2044 -98.9944 40° Northeast 497 572 37,000  Level Minneapolis Center
20:30 42.3217 -98.8592 39° Northeast 502 578 37,000  Level Minneapolis Center
20:31 42.4317 -98.7369 46° Northeast 502 578 37,000  Level Minneapolis Center
20:32 42.5300 -98.5989 50° Northeast 502 578 37,000  Level Minneapolis Center
20:33 42.6200 -98.4544 49° Northeast 502 578 37,000  Level Minneapolis Center
20:34 42.7119 -98.3094 50° Northeast 502 578 37,000  Level Minneapolis Center
20:35 42.8017 -98.1639 49° Northeast 502 578 37,000  Level Minneapolis Center
20:36 42.8931 -98.0211 51° Northeast 502 578 37,000  Level Minneapolis Center
20:37 42.9825 -97.8717 49° Northeast 502 578 37,000  Level Minneapolis Center
20:38 43.0758 -97.7253 50° Northeast 509 586 37,000  Level Minneapolis Center
20:39 43.1667 -97.5781 50° Northeast 509 586 37,000  Level Minneapolis Center
20:40 43.2556 -97.4306 50° Northeast 509 586 37,000  Level Minneapolis Center
20:41 43.3483 -97.2797 49° Northeast 509 586 37,000  Level Minneapolis Center
20:42 43.4408 -97.1314 51° Northeast 509 586 37,000  Level Minneapolis Center
20:43 43.5314 -96.9794 50° Northeast 509 586 37,000  Level Minneapolis Center
20:44 43.6214 -96.8300 54° Northeast 509 586 37,000  Level Minneapolis Center
20:45 43.7053 -96.6714 55° Northeast 514 592 37,000  Level Minneapolis Center
20:46 43.7892 -96.5064 55° Northeast 514 592 37,000  Level Minneapolis Center
20:47 43.8728 -96.3408 56° Northeast 514 592 37,000  Level Minneapolis Center
20:48 43.9542 -96.1717 55° Northeast 520 598 37,000  Level Minneapolis Center
20:49 44.0372 -96.0053 55° Northeast 520 598 37,000  Level Minneapolis Center
20:50 44.1200 -95.8383 55° Northeast 520 598 37,000  Level Minneapolis Center
20:51 44.2047 -95.6711 55° Northeast 525 604 37,000  Level Minneapolis Center
20:52 44.2872 -95.5033 55° Northeast 525 604 37,000  Level Minneapolis Center
20:53 44.3692 -95.3378 58° Northeast 525 604 37,000  Level Minneapolis Center
20:54 44.4472 -95.1631 67° East 525 604 37,000  Level Minneapolis Center
20:55 44.5039 -94.9756 71° East 514 592 37,000  Level Minneapolis Center
20:56 44.5503 -94.7817 73° East 520 598 37,000  Level Minneapolis Center
20:57 44.5875 -94.6106 71° East 520 598 37,000  Level Minneapolis Center
20:58 44.6353 -94.4161 73° East 512 589 37,000  Level Minneapolis Center
20:59 44.6783 -94.2211 72° East 513 590 37,000  Level Minneapolis Center
21:00 44.7214 -94.0292 73° East 512 589 37,000  Level Minneapolis Center
21:01 44.7658 -93.8278 71° East 519 597 37,000  Level Minneapolis Center
21:02 44.8164 -93.6144 71° East 519 597 37,000  Level Minneapolis Center
21:03 44.8644 -93.4183 71° East 519 597 37,000  Level Minneapolis Center
21:04 44.9142 -93.2161 72° East 525 604 37,000  Level Minneapolis Center
21:05 44.9556 -93.0372 72° East 530 610 37,000  Level Minneapolis Center
21:06 45.0003 -92.8431 71° East 523 602 37,000  Level Minneapolis Center
21:07 45.0472 -92.6458 71° East 518 596 37,000  Level Minneapolis Center
21:08 45.0936 -92.4539 72° East 518 596 37,000  Level Minneapolis Center
21:09 45.1394 -92.2589 72° East 518 596 37,000  Level Minneapolis Center
21:10 45.1872 -92.0458 71° East 518 596 37,000  Level Minneapolis Center
21:11 45.2344 -91.8472 72° East 524 603 37,000  Level Minneapolis Center
21:12 45.2794 -91.6542 71° East 519 597 37,000  Level Minneapolis Center
21:13 45.3264 -91.4578 72° East 524 603 37,000  Level Minneapolis Center
21:14 45.3725 -91.2583 78° East 529 609 37,000  Level Minneapolis Center
21:15 45.4019 -91.0647 96° East 519 597 37,000  Level Minneapolis Center
21:16 45.3872 -90.8586 113° Southeast 507 583 37,000  Level Minneapolis Center
21:17 45.3328 -90.6781 143° Southeast 502 578 37,000 -900 Level Minneapolis Center
21:18 45.2281 -90.5681 182° South 455 524 35,300 -2,460 Descending Minneapolis Center
21:19 45.1114 -90.5739 225° Southwest 397 457 32,200 -1,680 Descending Minneapolis Center
21:20 45.0308 -90.6867 270° West 335 386 32,000 -120 Descending Minneapolis Center
21:21 45.0300 -90.8278 291° West 303 349 32,000  Level Minneapolis Center
21:22 45.0642 -90.9556 284° West 318 366 32,000  Level Minneapolis Center
21:23 45.0903 -91.1014 287° West 365 420 32,000  Level Minneapolis Center
21:24 45.1181 -91.2328 298° West 384 442 32,000 -1,560 Level Minneapolis Center
21:25 45.1814 -91.4011 336° Northwest 404 465 29,000 -3,240 Descending Minneapolis Center
21:26 45.3017 -91.4764 North 441 507 25,600 -2,520 Descending Minneapolis Center
21:27 45.4367 -91.4569 North 439 505 24,000 -840 Descending Minneapolis Center
21:28 45.5675 -91.4317 346° North 460 529 24,000  Level Minneapolis Center
21:29 45.6828 -91.4719 303° West 447 514 24,000  Level Minneapolis Center
21:30 45.7433 -91.6036 267° West 381 438 24,000  Level Minneapolis Center
21:31 45.7375 -91.7586 261° West 329 379 24,000 -300 Level Minneapolis Center
21:32 45.7208 -91.9106 262° West 366 421 23,500 -780 Descending Minneapolis Center
21:33 45.7061 -92.0597 261° West 386 444 22,500 -1,020 Descending Minneapolis Center
21:34 45.6892 -92.2147 262° West 396 456 21,500 -960 Descending Minneapolis Center
21:35 45.6739 -92.3606 261° West 386 444 20,600 -960 Descending Minneapolis Center
21:36 45.6583 -92.5036 260° West 375 432 19,600 -960 Descending Minneapolis Center
21:37 45.6428 -92.6344 262° West 370 426 18,700 -900 Descending Minneapolis Center
21:38 45.6292 -92.7769 262° West 370 426 17,800 -960 Descending Minneapolis Center
21:39 45.6153 -92.9136 253° West 360 414 16,800 -1,140 Descending Minneapolis Center
21:39 45.6000 -92.9833 269° West 335 386 16,200 -1,200 Descending Minneapolis TRACON
21:40 45.5992 -93.0414 253° West 342 394 15,600 -1,320 Descending Minneapolis Center
21:40 45.5833 -93.1167 273° West 325 374 14,800 -1,140 Descending Minneapolis TRACON
21:41 45.5850 -93.1661 253° West 330 380 14,500 -1,140 Descending Minneapolis Center
21:41 45.5667 -93.2500 277° West 330 380 13,700 -1,200 Descending Minneapolis TRACON
21:42 45.5706 -93.2967 266° West 336 387 13,300 -1,200 Descending Minneapolis Center
21:42 45.5667 -93.3833 247° West 336 387 12,500 -1,200 Descending Minneapolis TRACON
21:43 45.5539 -93.4272 266° West 336 387 12,100 -1,140 Descending Minneapolis Center
21:43 45.5500 -93.5167 250° West 351 404 11,400 -1,020 Descending Minneapolis TRACON
21:44 45.5372 -93.5664 251° West 350 403 11,100 -420 Descending Minneapolis Center
21:44 45.5167 -93.6500 207° Southwest 368 423 11,000 -120 Descending Minneapolis TRACON
21:45 45.4767 -93.6789 169° South 336 387 11,000  Level Minneapolis Center
21:45 45.4333 -93.6667 146° Southeast 333 383 11,000  Level Minneapolis TRACON
21:46 45.3956 -93.6311 102° East 252 290 11,000  Level Minneapolis Center
21:46 45.3833 -93.5500 128° Southeast 312 359 11,000  Level Minneapolis TRACON
21:47 45.3644 -93.5158 144° Southeast 230 265 11,000  Level Minneapolis Center
21:47 45.3333 -93.4833 152° Southeast 280 322 11,000  Level Minneapolis TRACON
21:48 45.3019 -93.4597 152° Southeast 253 291 11,000  Level Minneapolis Center
21:48 45.2667 -93.4333 167° South 274 315 11,000  Level Minneapolis TRACON
21:49 45.2289 -93.4214 162° South 269 310 11,000 -480 Level Minneapolis Center
21:49 45.1833 -93.4000 153° Southeast 267 307 10,500 -1,020 Descending Minneapolis TRACON
21:50 45.1603 -93.3831 157° South 275 316 10,000 -1,260 Descending Minneapolis Center
21:50 45.1333 -93.3667 161° South 267 307 9,400 -1,020 Descending Minneapolis TRACON
21:51 45.0936 -93.3478 153° Southeast 265 305 9,000 -420 Descending Minneapolis Center
21:51 45.0500 -93.3167 178° South 243 280 9,000  Level Minneapolis TRACON
21:52 45.0311 -93.3156 181° South 247 284 9,000  Level Minneapolis Center
21:52 45.0000 -93.3167 172° South 223 257 9,000 -360 Level Minneapolis TRACON
21:53 44.9664 -93.3100 157° South 237 273 8,700 -900 Descending Minneapolis Center
21:53 44.9500 -93.3000 191° South 218 251 8,200 -720 Descending Minneapolis TRACON
21:54 44.9122 -93.3100 166° South 232 267 8,000 -240 Descending Minneapolis Center
21:54 44.8833 -93.3000 180° South 236 272 8,000  Level Minneapolis TRACON
21:55 44.8167 -93.3000 180° South 224 258 8,000 -900 Level Minneapolis TRACON
21:57 44.6833 -93.3000 167° South 222 255 5,200 -1,020 Descending Minneapolis TRACON
21:58 44.6333 -93.2833 160° South 225 259 5,000 -300 Descending Minneapolis TRACON
21:59 44.5667 -93.2500 22° Northeast 226 260 4,600 -300 Descending Minneapolis TRACON
22:02 44.6833 -93.1833 347° North 160 184 4,000 -240 Descending Minneapolis TRACON
22:03 44.7333 -93.2000 340° North 156 180 3,700 -540 Descending Minneapolis TRACON
22:04 44.7667 -93.2167 360° North 132 152 2,900 -780 Descending Minneapolis TRACON
22:05 44.8000 -93.2167 360° North 122 140 2,200 -720 Descending Minneapolis TRACON